createdAt,value
2023-05-18T00:02:49.483Z,9.56
2023-05-18T00:12:52.578Z,9.50
2023-05-18T00:22:57.056Z,9.28
2023-05-18T00:33:00.017Z,9.22
2023-05-18T00:43:04.245Z,9.10
2023-05-18T00:53:07.473Z,8.87
2023-05-18T01:03:12.183Z,8.76
2023-05-18T01:13:24.647Z,8.74
2023-05-18T01:24:03.649Z,8.52
2023-05-18T01:34:08.368Z,8.49
2023-05-18T01:44:17.498Z,8.35
2023-05-18T01:54:23.774Z,8.13
2023-05-18T02:04:26.943Z,7.82
2023-05-18T02:14:31.239Z,7.87
2023-05-18T02:24:34.465Z,7.62
2023-05-18T02:34:42.253Z,7.59
2023-05-18T02:44:45.562Z,7.54
2023-05-18T02:54:55.395Z,7.40
2023-05-18T03:05:11.885Z,7.27
2023-05-18T03:15:17.310Z,7.14
2023-05-18T03:25:20.707Z,7.05
2023-05-18T03:35:25.595Z,6.90
2023-05-18T03:45:29.134Z,6.84
2023-05-18T03:55:33.948Z,6.75
2023-05-18T04:05:37.526Z,6.84
2023-05-18T04:15:43.483Z,6.88
2023-05-18T04:25:46.527Z,6.95
2023-05-18T04:35:55.292Z,6.99
2023-05-18T04:46:00.311Z,7.14
2023-05-18T04:56:06.631Z,7.32
2023-05-18T05:06:10.342Z,7.62
2023-05-18T05:16:14.953Z,7.93
2023-05-18T05:26:18.777Z,8.17
2023-05-18T05:36:24.206Z,8.56
2023-05-18T05:46:27.481Z,8.92
2023-05-18T05:56:33.813Z,9.18
2023-05-18T06:06:38.228Z,9.56
2023-05-18T06:16:43.808Z,10.19
2023-05-18T06:26:47.071Z,10.35
2023-05-18T06:37:02.968Z,10.67
2023-05-18T06:47:06.788Z,11.08
2023-05-18T06:57:11.782Z,11.21
2023-05-18T07:07:15.767Z,11.61
2023-05-18T07:17:20.387Z,12.23
2023-05-18T07:27:23.908Z,12.48
2023-05-18T07:37:30.997Z,12.77
2023-05-18T07:47:35.569Z,13.06
2023-05-18T07:57:41.249Z,13.24
2023-05-18T08:07:44.769Z,13.82
2023-05-18T08:17:49.223Z,14.43
2023-05-18T08:27:52.338Z,14.36
2023-05-18T08:37:56.779Z,14.63
2023-05-18T08:48:02.310Z,14.80
2023-05-18T08:58:10.546Z,15.14
2023-05-18T09:08:13.624Z,15.05
2023-05-18T09:18:18.869Z,15.76
2023-05-18T09:28:32.313Z,16.04
2023-05-18T09:38:40.884Z,16.31
2023-05-18T09:48:48.324Z,16.88
2023-05-18T09:58:52.977Z,17.22
2023-05-18T10:08:58.376Z,16.99
2023-05-18T10:19:04.985Z,17.50
2023-05-18T10:29:09.092Z,18.22
2023-05-18T10:39:13.604Z,18.21
2023-05-18T10:49:19.698Z,18.65
2023-05-18T10:59:24.425Z,20.10
2023-05-18T11:09:29.649Z,20.97
2023-05-18T11:19:34.173Z,22.56
2023-05-18T11:29:42.228Z,23.94
2023-05-18T11:39:59.652Z,23.40
2023-05-18T11:50:03.946Z,26.32
2023-05-18T12:00:10.602Z,28.25
2023-05-18T12:10:17.485Z,30.81
2023-05-18T12:20:25.219Z,35.17
2023-05-18T12:30:35.633Z,31.60
2023-05-18T12:40:46.694Z,32.73
2023-05-18T12:50:51.378Z,30.83
2023-05-18T13:00:55.682Z,27.11
2023-05-18T13:11:12.627Z,23.72
2023-05-18T13:21:19.880Z,20.84
2023-05-18T13:31:23.647Z,20.24
2023-05-18T13:41:28.717Z,19.62
2023-05-18T13:51:31.678Z,19.22
2023-05-18T14:01:37.360Z,19.33
2023-05-18T14:11:40.414Z,19.26
2023-05-18T14:21:44.601Z,19.44
2023-05-18T14:31:47.560Z,19.16
2023-05-18T14:41:52.207Z,19.04
2023-05-18T14:51:55.214Z,18.84
2023-05-18T15:01:59.819Z,18.76
2023-05-18T15:12:02.874Z,18.74
2023-05-18T15:22:07.478Z,18.86
2023-05-18T15:32:11.226Z,18.78
2023-05-18T15:42:15.591Z,18.64
2023-05-18T15:52:18.691Z,18.74
2023-05-18T16:02:25.699Z,18.69
2023-05-18T16:12:28.652Z,18.50
2023-05-18T16:22:32.769Z,18.48
2023-05-18T16:32:35.776Z,18.31
2023-05-18T16:42:40.028Z,18.53
2023-05-18T16:52:43.063Z,18.47
2023-05-18T17:02:47.843Z,18.45
2023-05-18T17:12:52.059Z,18.35
2023-05-18T17:22:56.453Z,18.13
2023-05-18T17:32:59.566Z,17.99
2023-05-18T17:43:04.062Z,17.75
2023-05-18T17:53:07.318Z,17.42
2023-05-18T18:03:12.652Z,17.20
2023-05-18T18:13:15.870Z,17.05
2023-05-18T18:23:20.311Z,16.85
2023-05-18T18:33:25.769Z,16.59
2023-05-18T18:43:30.382Z,16.39
2023-05-18T18:53:33.512Z,16.20
2023-05-18T19:03:37.924Z,15.87
2023-05-18T19:13:40.930Z,15.78
2023-05-18T19:23:45.275Z,15.69
2023-05-18T19:33:48.546Z,15.79
2023-05-18T19:43:53.052Z,15.54
2023-05-18T19:53:55.926Z,15.42
2023-05-18T20:04:00.477Z,15.25
2023-05-18T20:14:03.655Z,15.12
2023-05-18T20:24:08.247Z,15.00
2023-05-18T20:34:11.268Z,14.71
2023-05-18T20:44:18.151Z,14.67
2023-05-18T20:54:21.950Z,14.39
2023-05-18T21:04:26.233Z,14.34
2023-05-18T21:14:30.479Z,14.12
2023-05-18T21:24:35.598Z,14.07
2023-05-18T21:34:39.187Z,13.90
2023-05-18T21:44:44.854Z,13.75
2023-05-18T21:54:48.732Z,13.51
2023-05-18T22:04:53.087Z,13.39
2023-05-18T22:14:56.812Z,13.17
2023-05-18T22:25:01.285Z,12.88
2023-05-18T22:35:04.385Z,12.82
2023-05-18T22:45:11.672Z,12.66
2023-05-18T22:55:14.752Z,12.52
2023-05-18T23:05:19.282Z,12.30
2023-05-18T23:15:23.857Z,12.13
2023-05-18T23:25:31.804Z,11.96
2023-05-18T23:35:36.600Z,11.78
2023-05-18T23:45:41.374Z,11.37
2023-05-18T23:55:45.276Z,11.31
